sim
Sign-in with your pilot id or email,
or register
Callsign
Passwort

Schedule Details

Flight Number: RYR5083 (1)
Departure: Thessaloniki International Airport (LGTS) at 21:10
Arrival: Paphos International Airport (LCPH) at 23:00
Route: Ryanair Passenger Schedule. Enter filed route here before submitting Pirep.

Weather Information
Getting current METAR information for LGTS 202320Z 11005KT 9999 SCT025 09/07 Q1027 NOSIG
Getting current METAR information for LCPH 210000Z 02017KT 9999 FEW020CB SCT045 10/03 Q1012

Schedule Frequency

Route Map